Ganado, Arizona
Current Conditions -  °F | °C
As of 5:53 AM on Friday 31 Oct 2014 (Local Time) from KRQE Reporting Station
Clear Clear  
Wind Chill: 32°   Ceiling: Unl
Heat Index: 32°   Visibility: 10mi
Dew Point: 14°   Wind: 0mph
Humidity: 47%   Direction: NA
Pressure: 30.32"   Gusts: NA
Location:  35.71°N, 109.54°W
Report Text: KRQE 311153Z AUTO 00000KT 10SM CLR 00/M10 A3032 RMK AO2 SLP199 T00001100 10044 21011 55004 TSNO
Loading
Personal Weather Stations






























Interactive Weather Map
Tropical Storm Tracking
New forecast layout! Learn more

10-Day Weather Forecast

Advertisements
Track Severe Weather on mobile